HOURLY OBS INDEX

007

Murchison

32KM SOUTH OF JUNA DOWNS

Site: 007CWA
Alt: 850m
104km WNW of NEWMAN


  Time     Wind        Temp  DP   Baro     Rain since   Rain past  Vis(m), Cloud(base in m), Weather
  local        km/h                         9am  last   hr   10m    
Mon 18:00    N 13/ 22  32.9 12.5  1009.5    2.8   0.0   0.0   0.0   10000 
Mon 18:00    N 13/ 22  32.9 12.5  1009.5    2.8   0.0  ----   0.0   10000 
Mon 18:30    N 13/ 19  32.5 12.7  1009.7    2.8   0.0   0.0   0.0   10000 
Mon 19:00    N  9/ 11  31.8 12.6  1009.7    2.8   0.0   0.0   0.0   10000 
Mon 19:30   NW  7/  9  30.4 13.7  1009.9    2.8   0.0   0.0   0.0   10000 
Mon 20:00    C  0/  2  30.5 13.3  1010.7    2.8   0.0   0.0   0.0   10000 
Mon 20:30  NNW  7/  9  30.3 13.6  1011.0    2.8   0.0   0.0   0.0   10000 
Mon 21:00  NNW  7/  9  29.6 13.8  1011.0    2.8   0.0   0.0   0.0   10000 
Mon 21:30  NNW  7/  9  28.9 14.7  1011.7    2.8   0.0   0.0   0.0   10000 
Mon 22:00    N  9/ 15  29.8 13.5  1012.2    2.8   0.0   0.0   0.0   10000 
Mon 22:30    N 11/ 15  29.2 13.4  1011.9    2.8   0.0   0.0   0.0   10000 
Mon 23:00    C  0/  6  28.4 13.9  1011.7    2.8   0.0   0.0   0.0   10000 
Mon 23:00    C  0/  6  28.4 13.9  1011.7    2.8   0.0  ----   0.0   10000 

40KM EAST OF JUNA DOWNS

Site: 007BRY
Alt: 615m
96km NW of NEWMAN


  Time     Wind        Temp  DP   Baro     Rain since   Rain past  Vis(m), Cloud(base in m), Weather
  local        km/h                         9am  last   hr   10m    
Mon 18:00    N 26/ 37  34.3 11.4  1009.0    0.0   0.0   0.0   0.0   10000 
Mon 18:00    N 26/ 37  34.3 11.4  1009.0    0.0   0.0  ----   0.0   10000 
Mon 18:30  NNE 24/ 35  33.8 10.4  1009.0    0.0   0.0   0.0   0.0   10000 
Mon 19:00  NNE 22/ 30  33.3 11.2  1009.2    0.0   0.0   0.0   0.0   10000 
Mon 19:30  NNE 24/ 30  33.1 11.0  1009.2    0.0   0.0   0.0   0.0   10000 
Mon 20:00  NNE 19/ 24  32.3 12.0  1009.5    0.0   0.0   0.0   0.0   10000 
Mon 20:30  NNE  6/ 11  31.8 12.1  1009.8    0.0   0.0   0.0   0.0   10000 
Mon 21:00    C  0/  9  31.3 12.2  1010.2    0.0   0.0   0.0   0.0   10000 
Mon 21:30    N 13/ 17  32.1 12.3  1011.2    0.0   0.0   0.0   0.0   10000 
Mon 22:00  NNW 19/ 24  32.0 12.8  1011.3    0.0   0.0   0.0   0.0   10000 
Mon 22:30  NNW 20/ 33  31.4 14.1  1011.3    0.0   0.0   0.0   0.0   10000 
Mon 23:00  NNW 19/ 26  31.2 13.9  1011.6    0.0   0.0   0.0   0.0   10000 
Mon 23:00  NNW 19/ 26  31.2 13.9  1011.6    0.0   0.0  ----   0.0   10000 

DEGRUSSA COPPER MINE

Site: 007DGU
Alt: 475m
141km NNE of MEEKATHARRA


  Time     Wind        Temp  DP   Baro     Rain since   Rain past  Vis(m), Cloud(base in m), Weather
  local        km/h                         9am  last   hr   10m    
Mon 18:00    W 28/ 41  39.4  3.5  1006.5    0.4   0.0   0.0   0.0   10000 
Mon 18:00    W 28/ 41  39.4  3.5  1006.5    0.4   0.0  ----   0.0   10000 
Mon 18:30    W 22/ 30  38.7  4.2  1006.8    0.4   0.0   0.0   0.0   10000 
Mon 19:00   NW 11/ 15  37.5  3.3  1007.7    0.4   0.0   0.0   0.0   10000 
Mon 19:30   NE 22/ 30  34.3 14.7  1008.1    0.4   0.0   0.0   0.0   10000 
Mon 20:00   NE 24/ 32  33.4 14.9  1008.7    0.4   0.0   0.0   0.0   10000 
Mon 20:30  ENE 11/ 17  33.0 15.0  1009.1    0.4   0.0   0.0   0.0   10000 
Mon 21:00  ENE 11/ 17  32.5 14.6  1009.5    0.4   0.0   0.0   0.0   10000 
Mon 21:30   SE  6/ 11  32.7 13.4  1009.7    0.4   0.0   0.0   0.0   10000 
Mon 22:00  WSW  4/ 11  31.7 12.5  1009.8    0.4   0.0   0.0   0.0   10000 
Mon 22:30    S  4/  4  30.2 12.6  1009.9    0.4   0.0   0.0   0.0   10000 
Mon 23:00  ENE  4/  7  28.6 12.9  1009.8    0.4   0.0   0.0   0.0   10000 
Mon 23:00  ENE  4/  7  28.6 12.9  1009.8    0.4   0.0  ----   0.0   10000 

MEEKATHARRA AIRPORT

Site: 007045
Alt: 517.0m
5km SE of MEEKATHARRA


  Time     Wind        Temp  DP   Baro     Rain since   Rain past  Vis(m), Cloud(base in m), Weather
  local        km/h                         9am  last   hr   10m    
Mon 18:00    W 28/ 41  37.7 -2.2  1007.1    0.0   0.0   0.0   0.0   10000 
Mon 18:00    W 28/ 41  37.7 -2.2  1007.1    0.0   0.0  ----   0.0   10000 
Mon 18:30    W 28/ 39  36.7 -2.9  1007.5    0.0   0.0   0.0   0.0   10000 
Mon 19:00    W 22/ 33  35.6 -2.1  1007.8    0.0   0.0   0.0   0.0   10000 
Mon 19:30    W 19/ 32  34.9 -1.2  1008.3    0.0   0.0   0.0   0.0   10000 
Mon 20:00    W 17/ 24  34.2 -1.7  1008.6    0.0   0.0   0.0   0.0   10000 
Mon 20:30    W 13/ 19  33.4 -2.3  1008.9    0.0   0.0   0.0   0.0   10000 
Mon 21:00    W 13/ 20  32.6 -2.9  1009.2    0.0   0.0   0.0   0.0   10000 
Mon 21:30    W 11/ 15  31.7 -3.6  1009.4    0.0   0.0   0.0   0.0   10000 
Mon 22:00    W  9/ 13  30.8 -1.9  1009.6    0.0   0.0   0.0   0.0   10000 
Mon 22:30    W 11/ 17  30.4 -1.1  1009.6    0.0   0.0   0.0   0.0   10000 
Mon 23:00    W 11/ 20  30.0  1.5  1009.4    0.0   0.0   0.0   0.0   10000 
Mon 23:00    W 11/ 20  30.0  1.5  1009.4    0.0   0.0  ----   0.0   10000 

MOUNT MAGNET AERO

Site: 007600
Alt: 407.0m
6km S of MOUNT MAGNET


  Time     Wind        Temp  DP   Baro     Rain since   Rain past  Vis(m), Cloud(base in m), Weather
  local        km/h                         9am  last   hr   10m    
Mon 18:00    W 26/ 41  37.8  4.7  1005.7    0.0   0.0   0.0   0.0   ----- 
Mon 18:00    W 26/ 41  37.8  4.7  1005.7    0.0   0.0  ----   0.0   ----- 
Mon 18:30    W 28/ 37  36.8  3.9  1006.2    0.0   0.0   0.0   0.0   ----- 
Mon 19:00    W 24/ 33  35.9  7.0  1006.5    0.0   0.0   0.0   0.0   ----- 
Mon 19:30  WSW 22/ 33  35.2 10.3  1006.9    0.0   0.0   0.0   0.0   ----- 
Mon 20:00  WSW 39/ 50  33.1 12.1  1007.6    0.0   0.0   0.0   0.0   ----- 
Mon 20:30  WSW 35/ 46  32.1 11.8  1008.2    0.0   0.0   0.0   0.0   ----- 
Mon 21:00  WSW 30/ 39  31.2 10.5  1008.9    0.0   0.0   0.0   0.0   ----- 
Mon 21:30  WSW 30/ 39  30.2 10.2  1009.2    0.0   0.0   0.0   0.0   ----- 
Mon 22:00  WSW 24/ 32  29.5 10.1  1009.6    0.0   0.0   0.0   0.0   ----- 
Mon 22:30  WSW 26/ 37  28.8 10.0  1009.6    0.0   0.0   0.0   0.0   ----- 
Mon 23:00  WSW 26/ 37  28.2  9.5  1009.5    0.0   0.0   0.0   0.0   ----- 
Mon 23:00  WSW 26/ 37  28.2  9.5  1009.5    0.0   0.0  ----   0.0   ----- 

NEWMAN AERO

Site: 007176
Alt: 524.0m
10km SE of NEWMAN


  Time     Wind        Temp  DP   Baro     Rain since   Rain past  Vis(m), Cloud(base in m), Weather
  local        km/h                         9am  last   hr   10m    
Mon 18:00   NE 20/ 26  31.2 17.9  1008.7    3.8   0.0   0.0   0.0   10000 
Mon 18:00   NE 20/ 26  31.2 17.9  1008.7    3.8   0.0  ----   0.0   10000 
Mon 18:30  ENE 15/ 20  31.1 15.5  1008.4    3.8   0.0   0.0   0.0   10000 
Mon 19:00   NE 11/ 15  30.1 16.1  1008.4    3.8   0.0   0.0   0.0   10000 
Mon 19:30  NNE  7/  9  29.0 17.5  1008.5    3.8   0.0   0.0   0.0   10000 
Mon 20:00  ENE  9/ 11  28.5 17.4  1008.8    3.8   0.0   0.0   0.0   10000 
Mon 20:30   NE  9/ 11  28.1 17.9  1008.8    3.8   0.0   0.0   0.0   10000 
Mon 21:00   NE  7/ 11  27.6 18.0  1009.0    3.8   0.0   0.0   0.0   10000 
Mon 21:30    E  6/  9  27.0 18.8  1009.3    3.8   0.0   0.0   0.0   10000 
Mon 22:00    C  0/  0  27.0 20.1  1009.3    3.8   0.0   0.0   0.0   10000 
Mon 22:30    W  7/ 11  26.1 20.4  1009.5    3.8   0.0   0.0   0.0   10000 
Mon 23:00  NNW  9/ 17  26.2 20.5  1010.1    3.8   0.0   0.0   0.0   10000 
Mon 23:00  NNW  9/ 17  26.2 20.5  1010.1    3.8   0.0  ----   0.0   10000 

PARABURDOO AERO

Site: 007185
Alt: 423.7m
3km NNW of PARABURDOO


  Time     Wind        Temp  DP   Baro     Rain since   Rain past  Vis(m), Cloud(base in m), Weather
  local        km/h                         9am  last   hr   10m    
Mon 18:00    W 30/ 41  41.6  2.3  1005.4    0.0   0.0   0.0   0.0   10000 
Mon 18:00    W 30/ 41  41.6  2.3  1005.4    0.0   0.0  ----   0.0   10000 
Mon 18:30    W 30/ 37  41.0  3.4  1005.8    0.0   0.0   0.0   0.0   10000 
Mon 19:00    W 24/ 32  40.2  2.8  1006.2    0.0   0.0   0.0   0.0   10000 
Mon 19:30   SW 28/ 39  39.2  0.6  1006.5    0.0   0.0   0.0   0.0   10000 
Mon 19:47   SW 28/ 48  38.8  0.3  1006.7    0.0   0.0  ----   0.0   10000 
Mon 20:00   SW 26/ 39  38.4  1.4  1007.0    0.0   0.0   0.0   0.0   10000 
Mon 20:30   SW 26/ 39  37.7  0.9  1007.6    0.0   0.0   0.0   0.0   10000 
Mon 21:00   SW 26/ 35  37.1 -1.0  1008.0    0.0   0.0   0.0   0.0   10000 
Mon 21:30   SW 20/ 30  36.6 -1.4  1008.4    0.0   0.0   0.0   0.0   10000 
Mon 22:00   SW 15/ 20  35.8 -2.0  1008.7    0.0   0.0   0.0   0.0   10000 
Mon 22:30   SW 15/ 20  35.4 -2.3  1009.0    0.0   0.0   0.0   0.0   10000 
Mon 23:00  WSW 11/ 13  34.3 -3.1  1009.2    0.0   0.0   0.0   0.0   10000 
Mon 23:00  WSW 11/ 13  34.3 -3.1  1009.2    0.0   0.0  ----   0.0   10000 

WEST ANGELAS MINE

Site: 007ANG
Alt: 685m
108km WNW of NEWMAN


  Time     Wind        Temp  DP   Baro     Rain since   Rain past  Vis(m), Cloud(base in m), Weather
  local        km/h                         9am  last   hr   10m    
Mon 18:00  NNE 17/ 24  34.2 14.1  1009.1    0.0   0.0   0.0   0.0   10000 
Mon 18:00  NNE 17/ 24  34.2 14.1  1009.1    0.0   0.0  ----   0.0   10000 
Mon 18:30  NNE 20/ 28  33.8 14.3  1009.2    0.0   0.0   0.0   0.0   10000 
Mon 19:00    N 19/ 32  33.8 13.3  1009.4    0.0   0.0   0.0   0.0   10000 
Mon 19:30    N 17/ 28  33.6 12.0  1009.6    0.0   0.0   0.0   0.0   10000 
Mon 20:00  NNE 11/ 20  32.8 12.4  1010.5    0.0   0.0   0.0   0.0   10000 
Mon 20:30    N 22/ 32  32.7 12.9  1010.6    0.0   0.0   0.0   0.0   10000 
Mon 21:00    N 11/ 19  32.5 12.2  1011.1    0.0   0.0   0.0   0.0   10000 
Mon 21:30   SE  4/  6  31.6 12.4  1011.4    0.0   0.0   0.0   0.0   10000 
Mon 22:00  NNE  7/  7  30.5 12.4  1011.8    0.0   0.0   0.0   0.0   10000 
Mon 22:30   NE  6/  9  30.8 12.7  1011.8    0.0   0.0   0.0   0.0   10000 
Mon 23:00    S  7/ 13  29.6 12.1  1011.4    0.0   0.0   0.0   0.0   10000 
Mon 23:00    S  7/ 13  29.6 12.1  1011.4    0.0   0.0  ----   0.0   10000